sensor_id;sensor_type;location;lat;lon;timestamp;P1;durP1;ratioP1;P2;durP2;ratioP2
39362;SDS011;25088;43.238;23.110;2023-02-28T00:00:09;0.30;;;0.30;;
39362;SDS011;25088;43.238;23.110;2023-02-28T00:02:37;0.30;;;0.30;;
39362;SDS011;25088;43.238;23.110;2023-02-28T00:05:03;0.20;;;0.20;;
39362;SDS011;25088;43.238;23.110;2023-02-28T00:07:30;0.28;;;0.28;;
39362;SDS011;25088;43.238;23.110;2023-02-28T00:09:56;0.25;;;0.25;;
39362;SDS011;25088;43.238;23.110;2023-02-28T00:12:22;0.20;;;0.20;;
39362;SDS011;25088;43.238;23.110;2023-02-28T00:14:49;0.22;;;0.22;;
39362;SDS011;25088;43.238;23.110;2023-02-28T00:17:14;0.30;;;0.30;;
39362;SDS011;25088;43.238;23.110;2023-02-28T00:19:42;0.20;;;0.20;;
39362;SDS011;25088;43.238;23.110;2023-02-28T00:22:08;0.20;;;0.20;;
39362;SDS011;25088;43.238;23.110;2023-02-28T00:24:34;0.20;;;0.20;;
39362;SDS011;25088;43.238;23.110;2023-02-28T00:27:00;0.20;;;0.20;;
39362;SDS011;25088;43.238;23.110;2023-02-28T00:29:25;0.30;;;0.30;;
39362;SDS011;25088;43.238;23.110;2023-02-28T00:31:51;0.20;;;0.20;;
39362;SDS011;25088;43.238;23.110;2023-02-28T00:34:16;0.20;;;0.20;;
39362;SDS011;25088;43.238;23.110;2023-02-28T00:36:42;0.20;;;0.20;;
39362;SDS011;25088;43.238;23.110;2023-02-28T00:39:10;0.20;;;0.20;;
39362;SDS011;25088;43.238;23.110;2023-02-28T00:41:36;0.30;;;0.30;;
39362;SDS011;25088;43.238;23.110;2023-02-28T00:44:01;0.30;;;0.30;;
39362;SDS011;25088;43.238;23.110;2023-02-28T00:46:27;0.30;;;0.30;;
39362;SDS011;25088;43.238;23.110;2023-02-28T00:48:53;0.30;;;0.30;;
39362;SDS011;25088;43.238;23.110;2023-02-28T00:51:18;0.30;;;0.30;;
39362;SDS011;25088;43.238;23.110;2023-02-28T00:53:44;0.20;;;0.20;;
39362;SDS011;25088;43.238;23.110;2023-02-28T00:56:09;0.30;;;0.30;;
39362;SDS011;25088;43.238;23.110;2023-02-28T00:58:35;0.20;;;0.20;;
39362;SDS011;25088;43.238;23.110;2023-02-28T01:01:01;0.20;;;0.20;;
39362;SDS011;25088;43.238;23.110;2023-02-28T01:03:26;0.30;;;0.30;;
39362;SDS011;25088;43.238;23.110;2023-02-28T01:05:52;0.30;;;0.30;;
39362;SDS011;25088;43.238;23.110;2023-02-28T01:08:18;0.20;;;0.20;;
39362;SDS011;25088;43.238;23.110;2023-02-28T01:10:43;0.30;;;0.30;;
39362;SDS011;25088;43.238;23.110;2023-02-28T01:13:09;0.20;;;0.20;;
39362;SDS011;25088;43.238;23.110;2023-02-28T01:15:35;0.30;;;0.30;;
39362;SDS011;25088;43.238;23.110;2023-02-28T01:18:01;0.20;;;0.20;;
39362;SDS011;25088;43.238;23.110;2023-02-28T01:20:26;0.20;;;0.20;;
39362;SDS011;25088;43.238;23.110;2023-02-28T01:22:52;0.30;;;0.30;;
39362;SDS011;25088;43.238;23.110;2023-02-28T01:25:17;0.22;;;0.22;;
39362;SDS011;25088;43.238;23.110;2023-02-28T01:27:43;0.20;;;0.20;;
39362;SDS011;25088;43.238;23.110;2023-02-28T01:30:08;0.30;;;0.30;;
39362;SDS011;25088;43.238;23.110;2023-02-28T01:32:35;0.20;;;0.20;;
39362;SDS011;25088;43.238;23.110;2023-02-28T01:35:01;0.20;;;0.20;;
39362;SDS011;25088;43.238;23.110;2023-02-28T01:37:27;0.30;;;0.30;;
39362;SDS011;25088;43.238;23.110;2023-02-28T01:39:53;0.20;;;0.20;;
39362;SDS011;25088;43.238;23.110;2023-02-28T01:42:18;0.20;;;0.20;;
39362;SDS011;25088;43.238;23.110;2023-02-28T01:47:46;0.30;;;0.30;;
39362;SDS011;25088;43.238;23.110;2023-02-28T01:50:16;0.30;;;0.30;;
39362;SDS011;25088;43.238;23.110;2023-02-28T01:52:45;0.30;;;0.30;;
39362;SDS011;25088;43.238;23.110;2023-02-28T01:55:13;0.20;;;0.20;;
39362;SDS011;25088;43.238;23.110;2023-02-28T01:57:43;0.30;;;0.30;;
39362;SDS011;25088;43.238;23.110;2023-02-28T02:00:14;0.20;;;0.20;;
39362;SDS011;25088;43.238;23.110;2023-02-28T02:02:42;0.20;;;0.20;;
39362;SDS011;25088;43.238;23.110;2023-02-28T02:05:30;0.30;;;0.30;;
39362;SDS011;25088;43.238;23.110;2023-02-28T02:08:18;0.25;;;0.25;;
39362;SDS011;25088;43.238;23.110;2023-02-28T02:10:56;0.30;;;0.30;;
39362;SDS011;25088;43.238;23.110;2023-02-28T02:13:43;0.30;;;0.30;;
39362;SDS011;25088;43.238;23.110;2023-02-28T02:38:04;0.40;;;0.40;;
39362;SDS011;25088;43.238;23.110;2023-02-28T02:40:58;0.30;;;0.30;;
39362;SDS011;25088;43.238;23.110;2023-02-28T02:46:14;0.30;;;0.30;;
39362;SDS011;25088;43.238;23.110;2023-02-28T02:48:45;0.30;;;0.30;;
39362;SDS011;25088;43.238;23.110;2023-02-28T02:51:16;0.40;;;0.40;;
39362;SDS011;25088;43.238;23.110;2023-02-28T02:53:55;0.50;;;0.50;;
39362;SDS011;25088;43.238;23.110;2023-02-28T02:56:26;0.40;;;0.40;;
39362;SDS011;25088;43.238;23.110;2023-02-28T02:59:03;0.40;;;0.40;;
39362;SDS011;25088;43.238;23.110;2023-02-28T03:01:32;0.50;;;0.50;;
39362;SDS011;25088;43.238;23.110;2023-02-28T03:04:03;0.50;;;0.50;;
39362;SDS011;25088;43.238;23.110;2023-02-28T03:06:32;0.50;;;0.50;;
39362;SDS011;25088;43.238;23.110;2023-02-28T03:08:59;0.45;;;0.45;;
39362;SDS011;25088;43.238;23.110;2023-02-28T03:11:25;0.40;;;0.40;;
39362;SDS011;25088;43.238;23.110;2023-02-28T03:27:07;0.30;;;0.30;;
39362;SDS011;25088;43.238;23.110;2023-02-28T03:32:52;0.30;;;0.30;;
39362;SDS011;25088;43.238;23.110;2023-02-28T03:36:04;0.30;;;0.30;;
39362;SDS011;25088;43.238;23.110;2023-02-28T03:41:04;0.30;;;0.30;;
39362;SDS011;25088;43.238;23.110;2023-02-28T03:43:55;0.30;;;0.30;;
39362;SDS011;25088;43.238;23.110;2023-02-28T03:46:24;0.40;;;0.40;;
39362;SDS011;25088;43.238;23.110;2023-02-28T03:49:15;0.30;;;0.30;;
39362;SDS011;25088;43.238;23.110;2023-02-28T03:51:43;0.30;;;0.30;;
39362;SDS011;25088;43.238;23.110;2023-02-28T03:54:16;0.30;;;0.30;;
39362;SDS011;25088;43.238;23.110;2023-02-28T03:56:48;0.30;;;0.30;;
39362;SDS011;25088;43.238;23.110;2023-02-28T03:59:25;0.30;;;0.30;;
39362;SDS011;25088;43.238;23.110;2023-02-28T04:01:54;0.30;;;0.30;;
39362;SDS011;25088;43.238;23.110;2023-02-28T04:04:20;0.30;;;0.30;;
39362;SDS011;25088;43.238;23.110;2023-02-28T04:06:47;0.30;;;0.30;;
39362;SDS011;25088;43.238;23.110;2023-02-28T04:09:15;0.30;;;0.30;;
39362;SDS011;25088;43.238;23.110;2023-02-28T04:11:45;0.30;;;0.30;;
39362;SDS011;25088;43.238;23.110;2023-02-28T04:14:16;0.30;;;0.30;;
39362;SDS011;25088;43.238;23.110;2023-02-28T04:16:41;0.30;;;0.30;;
39362;SDS011;25088;43.238;23.110;2023-02-28T04:19:08;0.30;;;0.30;;
39362;SDS011;25088;43.238;23.110;2023-02-28T04:21:36;0.30;;;0.30;;
39362;SDS011;25088;43.238;23.110;2023-02-28T04:24:07;0.30;;;0.30;;
39362;SDS011;25088;43.238;23.110;2023-02-28T04:26:38;0.30;;;0.30;;
39362;SDS011;25088;43.238;23.110;2023-02-28T04:29:05;0.30;;;0.30;;
39362;SDS011;25088;43.238;23.110;2023-02-28T04:31:32;0.30;;;0.30;;
39362;SDS011;25088;43.238;23.110;2023-02-28T04:33:58;0.30;;;0.30;;
39362;SDS011;25088;43.238;23.110;2023-02-28T04:36:24;0.30;;;0.30;;
39362;SDS011;25088;43.238;23.110;2023-02-28T04:38:49;0.28;;;0.28;;
39362;SDS011;25088;43.238;23.110;2023-02-28T04:41:15;0.30;;;0.30;;
39362;SDS011;25088;43.238;23.110;2023-02-28T04:43:41;0.30;;;0.30;;
39362;SDS011;25088;43.238;23.110;2023-02-28T04:46:07;0.20;;;0.20;;
39362;SDS011;25088;43.238;23.110;2023-02-28T04:48:34;0.30;;;0.30;;
39362;SDS011;25088;43.238;23.110;2023-02-28T04:51:01;0.30;;;0.30;;
39362;SDS011;25088;43.238;23.110;2023-02-28T04:53:28;0.30;;;0.30;;
39362;SDS011;25088;43.238;23.110;2023-02-28T04:55:54;0.30;;;0.30;;
39362;SDS011;25088;43.238;23.110;2023-02-28T04:58:20;0.30;;;0.30;;
39362;SDS011;25088;43.238;23.110;2023-02-28T05:00:49;0.30;;;0.30;;
39362;SDS011;25088;43.238;23.110;2023-02-28T05:03:16;0.30;;;0.30;;
39362;SDS011;25088;43.238;23.110;2023-02-28T05:05:42;0.30;;;0.30;;
39362;SDS011;25088;43.238;23.110;2023-02-28T05:08:07;0.30;;;0.30;;
39362;SDS011;25088;43.238;23.110;2023-02-28T05:10:34;0.35;;;0.35;;
39362;SDS011;25088;43.238;23.110;2023-02-28T05:13:00;0.30;;;0.30;;
39362;SDS011;25088;43.238;23.110;2023-02-28T05:15:25;0.30;;;0.30;;
39362;SDS011;25088;43.238;23.110;2023-02-28T05:17:51;0.30;;;0.30;;
39362;SDS011;25088;43.238;23.110;2023-02-28T05:20:16;0.30;;;0.30;;
39362;SDS011;25088;43.238;23.110;2023-02-28T05:22:42;0.30;;;0.30;;
39362;SDS011;25088;43.238;23.110;2023-02-28T05:25:10;0.30;;;0.30;;
39362;SDS011;25088;43.238;23.110;2023-02-28T05:27:41;0.30;;;0.30;;
39362;SDS011;25088;43.238;23.110;2023-02-28T05:30:06;0.30;;;0.30;;
39362;SDS011;25088;43.238;23.110;2023-02-28T05:32:35;0.30;;;0.30;;
39362;SDS011;25088;43.238;23.110;2023-02-28T05:35:01;0.30;;;0.30;;
39362;SDS011;25088;43.238;23.110;2023-02-28T05:37:27;0.30;;;0.30;;
39362;SDS011;25088;43.238;23.110;2023-02-28T05:39:52;0.30;;;0.30;;
39362;SDS011;25088;43.238;23.110;2023-02-28T05:42:18;0.32;;;0.32;;
39362;SDS011;25088;43.238;23.110;2023-02-28T05:44:43;0.30;;;0.30;;
39362;SDS011;25088;43.238;23.110;2023-02-28T05:47:09;0.30;;;0.30;;
39362;SDS011;25088;43.238;23.110;2023-02-28T05:49:34;0.30;;;0.30;;
39362;SDS011;25088;43.238;23.110;2023-02-28T05:52:00;0.30;;;0.30;;
39362;SDS011;25088;43.238;23.110;2023-02-28T05:54:25;0.30;;;0.30;;
39362;SDS011;25088;43.238;23.110;2023-02-28T05:56:51;0.30;;;0.30;;
39362;SDS011;25088;43.238;23.110;2023-02-28T05:59:16;0.30;;;0.30;;
39362;SDS011;25088;43.238;23.110;2023-02-28T06:01:42;0.30;;;0.30;;
39362;SDS011;25088;43.238;23.110;2023-02-28T06:04:13;0.30;;;0.30;;
39362;SDS011;25088;43.238;23.110;2023-02-28T06:06:43;0.30;;;0.30;;
39362;SDS011;25088;43.238;23.110;2023-02-28T06:09:10;0.20;;;0.20;;
39362;SDS011;25088;43.238;23.110;2023-02-28T06:11:35;0.30;;;0.30;;
39362;SDS011;25088;43.238;23.110;2023-02-28T06:14:02;0.30;;;0.30;;
39362;SDS011;25088;43.238;23.110;2023-02-28T06:16:29;0.30;;;0.30;;
39362;SDS011;25088;43.238;23.110;2023-02-28T06:18:57;0.30;;;0.30;;
39362;SDS011;25088;43.238;23.110;2023-02-28T06:21:23;0.30;;;0.30;;
39362;SDS011;25088;43.238;23.110;2023-02-28T06:23:49;0.30;;;0.30;;
39362;SDS011;25088;43.238;23.110;2023-02-28T06:26:15;0.30;;;0.30;;
39362;SDS011;25088;43.238;23.110;2023-02-28T06:28:40;0.32;;;0.32;;
39362;SDS011;25088;43.238;23.110;2023-02-28T06:31:07;0.30;;;0.30;;
39362;SDS011;25088;43.238;23.110;2023-02-28T06:33:33;0.40;;;0.40;;
39362;SDS011;25088;43.238;23.110;2023-02-28T06:35:59;0.35;;;0.35;;
39362;SDS011;25088;43.238;23.110;2023-02-28T06:38:24;0.30;;;0.30;;
39362;SDS011;25088;43.238;23.110;2023-02-28T06:40:56;0.30;;;0.30;;
39362;SDS011;25088;43.238;23.110;2023-02-28T06:43:24;0.40;;;0.40;;
39362;SDS011;25088;43.238;23.110;2023-02-28T06:45:50;0.30;;;0.30;;
39362;SDS011;25088;43.238;23.110;2023-02-28T06:48:20;0.40;;;0.40;;
39362;SDS011;25088;43.238;23.110;2023-02-28T06:50:45;0.40;;;0.40;;
39362;SDS011;25088;43.238;23.110;2023-02-28T06:53:12;0.32;;;0.32;;
39362;SDS011;25088;43.238;23.110;2023-02-28T06:55:37;0.40;;;0.40;;
39362;SDS011;25088;43.238;23.110;2023-02-28T06:58:04;0.40;;;0.40;;
39362;SDS011;25088;43.238;23.110;2023-02-28T07:00:39;0.38;;;0.38;;
39362;SDS011;25088;43.238;23.110;2023-02-28T07:03:07;0.30;;;0.30;;
39362;SDS011;25088;43.238;23.110;2023-02-28T07:05:34;0.40;;;0.40;;
39362;SDS011;25088;43.238;23.110;2023-02-28T07:08:00;0.30;;;0.30;;
39362;SDS011;25088;43.238;23.110;2023-02-28T07:10:26;0.40;;;0.40;;
39362;SDS011;25088;43.238;23.110;2023-02-28T07:12:52;0.40;;;0.40;;
39362;SDS011;25088;43.238;23.110;2023-02-28T07:15:17;0.32;;;0.32;;
39362;SDS011;25088;43.238;23.110;2023-02-28T07:17:43;0.30;;;0.30;;
39362;SDS011;25088;43.238;23.110;2023-02-28T07:20:08;0.30;;;0.30;;
39362;SDS011;25088;43.238;23.110;2023-02-28T07:22:34;0.30;;;0.30;;
39362;SDS011;25088;43.238;23.110;2023-02-28T07:25:00;0.30;;;0.30;;
39362;SDS011;25088;43.238;23.110;2023-02-28T07:27:25;0.30;;;0.30;;
39362;SDS011;25088;43.238;23.110;2023-02-28T07:29:51;0.40;;;0.40;;
39362;SDS011;25088;43.238;23.110;2023-02-28T07:32:17;0.35;;;0.35;;
39362;SDS011;25088;43.238;23.110;2023-02-28T07:34:43;0.40;;;0.40;;
39362;SDS011;25088;43.238;23.110;2023-02-28T07:37:09;0.30;;;0.30;;
39362;SDS011;25088;43.238;23.110;2023-02-28T07:39:35;0.22;;;0.22;;
39362;SDS011;25088;43.238;23.110;2023-02-28T07:42:03;0.38;;;0.38;;
39362;SDS011;25088;43.238;23.110;2023-02-28T07:44:29;0.30;;;0.30;;
39362;SDS011;25088;43.238;23.110;2023-02-28T07:46:55;0.30;;;0.30;;
39362;SDS011;25088;43.238;23.110;2023-02-28T07:49:20;0.30;;;0.30;;
39362;SDS011;25088;43.238;23.110;2023-02-28T07:51:46;0.30;;;0.30;;
39362;SDS011;25088;43.238;23.110;2023-02-28T07:54:11;0.30;;;0.30;;
39362;SDS011;25088;43.238;23.110;2023-02-28T07:56:37;0.30;;;0.30;;
39362;SDS011;25088;43.238;23.110;2023-02-28T07:59:02;0.30;;;0.30;;
39362;SDS011;25088;43.238;23.110;2023-02-28T08:01:28;0.30;;;0.30;;
39362;SDS011;25088;43.238;23.110;2023-02-28T08:03:53;0.30;;;0.30;;
39362;SDS011;25088;43.238;23.110;2023-02-28T08:06:20;0.30;;;0.30;;
39362;SDS011;25088;43.238;23.110;2023-02-28T08:08:48;0.30;;;0.30;;
39362;SDS011;25088;43.238;23.110;2023-02-28T08:11:14;0.30;;;0.30;;
39362;SDS011;25088;43.238;23.110;2023-02-28T08:13:41;0.30;;;0.30;;
39362;SDS011;25088;43.238;23.110;2023-02-28T08:16:08;0.30;;;0.30;;
39362;SDS011;25088;43.238;23.110;2023-02-28T08:18:35;0.30;;;0.30;;
39362;SDS011;25088;43.238;23.110;2023-02-28T08:21:05;0.30;;;0.30;;
39362;SDS011;25088;43.238;23.110;2023-02-28T08:23:32;0.20;;;0.20;;
39362;SDS011;25088;43.238;23.110;2023-02-28T08:25:58;0.22;;;0.22;;
39362;SDS011;25088;43.238;23.110;2023-02-28T08:28:24;0.20;;;0.20;;
39362;SDS011;25088;43.238;23.110;2023-02-28T08:30:49;0.20;;;0.20;;
39362;SDS011;25088;43.238;23.110;2023-02-28T08:33:15;0.20;;;0.20;;
39362;SDS011;25088;43.238;23.110;2023-02-28T08:35:40;0.20;;;0.20;;
39362;SDS011;25088;43.238;23.110;2023-02-28T08:38:06;0.20;;;0.20;;
39362;SDS011;25088;43.238;23.110;2023-02-28T08:40:31;0.20;;;0.20;;
39362;SDS011;25088;43.238;23.110;2023-02-28T08:42:57;0.20;;;0.20;;
39362;SDS011;25088;43.238;23.110;2023-02-28T08:45:23;0.20;;;0.20;;
39362;SDS011;25088;43.238;23.110;2023-02-28T08:47:49;0.20;;;0.20;;
39362;SDS011;25088;43.238;23.110;2023-02-28T08:50:17;0.20;;;0.20;;
39362;SDS011;25088;43.238;23.110;2023-02-28T08:52:43;0.20;;;0.20;;
39362;SDS011;25088;43.238;23.110;2023-02-28T08:55:09;0.20;;;0.20;;
39362;SDS011;25088;43.238;23.110;2023-02-28T08:57:35;0.20;;;0.20;;
39362;SDS011;25088;43.238;23.110;2023-02-28T09:00:00;0.20;;;0.20;;
39362;SDS011;25088;43.238;23.110;2023-02-28T09:02:29;0.20;;;0.20;;
39362;SDS011;25088;43.238;23.110;2023-02-28T09:04:56;0.20;;;0.20;;
39362;SDS011;25088;43.238;23.110;2023-02-28T09:07:23;0.20;;;0.20;;
39362;SDS011;25088;43.238;23.110;2023-02-28T09:09:49;0.30;;;0.30;;
39362;SDS011;25088;43.238;23.110;2023-02-28T09:12:21;0.20;;;0.20;;
39362;SDS011;25088;43.238;23.110;2023-02-28T09:14:48;0.20;;;0.20;;
39362;SDS011;25088;43.238;23.110;2023-02-28T09:17:13;0.20;;;0.20;;
39362;SDS011;25088;43.238;23.110;2023-02-28T09:19:40;0.20;;;0.20;;
39362;SDS011;25088;43.238;23.110;2023-02-28T09:22:05;0.20;;;0.20;;
39362;SDS011;25088;43.238;23.110;2023-02-28T09:24:31;0.20;;;0.20;;
39362;SDS011;25088;43.238;23.110;2023-02-28T09:26:56;0.20;;;0.20;;
39362;SDS011;25088;43.238;23.110;2023-02-28T09:29:22;0.20;;;0.20;;
39362;SDS011;25088;43.238;23.110;2023-02-28T09:31:47;0.20;;;0.20;;
39362;SDS011;25088;43.238;23.110;2023-02-28T09:34:13;0.20;;;0.20;;
39362;SDS011;25088;43.238;23.110;2023-02-28T09:36:39;0.20;;;0.20;;
39362;SDS011;25088;43.238;23.110;2023-02-28T09:39:04;0.20;;;0.20;;
39362;SDS011;25088;43.238;23.110;2023-02-28T09:41:41;0.20;;;0.20;;
39362;SDS011;25088;43.238;23.110;2023-02-28T09:44:31;0.20;;;0.20;;
39362;SDS011;25088;43.238;23.110;2023-02-28T09:47:05;0.20;;;0.20;;
39362;SDS011;25088;43.238;23.110;2023-02-28T09:49:41;0.20;;;0.20;;
39362;SDS011;25088;43.238;23.110;2023-02-28T09:52:18;0.20;;;0.20;;
39362;SDS011;25088;43.238;23.110;2023-02-28T09:54:46;0.20;;;0.20;;
39362;SDS011;25088;43.238;23.110;2023-02-28T10:05:24;0.20;;;0.20;;
39362;SDS011;25088;43.238;23.110;2023-02-28T10:10:51;0.20;;;0.20;;
39362;SDS011;25088;43.238;23.110;2023-02-28T10:16:16;0.28;;;0.28;;
39362;SDS011;25088;43.238;23.110;2023-02-28T10:18:48;0.20;;;0.20;;
39362;SDS011;25088;43.238;23.110;2023-02-28T10:21:21;0.20;;;0.20;;
39362;SDS011;25088;43.238;23.110;2023-02-28T10:23:53;0.20;;;0.20;;
39362;SDS011;25088;43.238;23.110;2023-02-28T10:26:27;0.20;;;0.20;;
39362;SDS011;25088;43.238;23.110;2023-02-28T10:28:55;0.20;;;0.20;;
39362;SDS011;25088;43.238;23.110;2023-02-28T10:31:20;0.20;;;0.20;;
39362;SDS011;25088;43.238;23.110;2023-02-28T10:33:46;0.20;;;0.20;;
39362;SDS011;25088;43.238;23.110;2023-02-28T10:36:15;0.20;;;0.20;;
39362;SDS011;25088;43.238;23.110;2023-02-28T10:38:42;0.20;;;0.20;;
39362;SDS011;25088;43.238;23.110;2023-02-28T10:41:13;0.20;;;0.20;;
39362;SDS011;25088;43.238;23.110;2023-02-28T10:43:41;0.20;;;0.20;;
39362;SDS011;25088;43.238;23.110;2023-02-28T10:48:42;0.20;;;0.20;;
39362;SDS011;25088;43.238;23.110;2023-02-28T10:51:18;0.20;;;0.20;;
39362;SDS011;25088;43.238;23.110;2023-02-28T10:53:51;0.20;;;0.20;;
39362;SDS011;25088;43.238;23.110;2023-02-28T10:56:19;0.20;;;0.20;;
39362;SDS011;25088;43.238;23.110;2023-02-28T11:03:47;0.20;;;0.20;;
39362;SDS011;25088;43.238;23.110;2023-02-28T11:06:21;0.20;;;0.20;;
39362;SDS011;25088;43.238;23.110;2023-02-28T11:08:54;0.20;;;0.20;;
39362;SDS011;25088;43.238;23.110;2023-02-28T11:11:24;0.20;;;0.20;;
39362;SDS011;25088;43.238;23.110;2023-02-28T11:13:53;0.20;;;0.20;;
39362;SDS011;25088;43.238;23.110;2023-02-28T11:16:22;0.20;;;0.20;;
39362;SDS011;25088;43.238;23.110;2023-02-28T11:18:58;0.20;;;0.20;;
39362;SDS011;25088;43.238;23.110;2023-02-28T11:21:31;0.20;;;0.20;;
39362;SDS011;25088;43.238;23.110;2023-02-28T11:24:05;0.20;;;0.20;;
39362;SDS011;25088;43.238;23.110;2023-02-28T11:26:46;0.20;;;0.20;;
39362;SDS011;25088;43.238;23.110;2023-02-28T11:29:17;0.20;;;0.20;;
39362;SDS011;25088;43.238;23.110;2023-02-28T11:32:00;0.20;;;0.20;;
39362;SDS011;25088;43.238;23.110;2023-02-28T11:34:38;0.30;;;0.30;;
39362;SDS011;25088;43.238;23.110;2023-02-28T11:37:09;0.20;;;0.20;;
39362;SDS011;25088;43.238;23.110;2023-02-28T11:53:17;0.20;;;0.20;;
39362;SDS011;25088;43.238;23.110;2023-02-28T11:59:01;0.20;;;0.20;;
39362;SDS011;25088;43.238;23.110;2023-02-28T12:07:13;0.30;;;0.30;;
39362;SDS011;25088;43.238;23.110;2023-02-28T12:09:57;0.20;;;0.20;;
39362;SDS011;25088;43.238;23.110;2023-02-28T12:20:48;0.30;;;0.30;;
39362;SDS011;25088;43.238;23.110;2023-02-28T12:23:10;0.30;;;0.30;;
39362;SDS011;25088;43.238;23.110;2023-02-28T12:25:56;0.20;;;0.20;;
39362;SDS011;25088;43.238;23.110;2023-02-28T12:28:26;0.30;;;0.30;;
39362;SDS011;25088;43.238;23.110;2023-02-28T12:30:58;0.30;;;0.30;;
39362;SDS011;25088;43.238;23.110;2023-02-28T12:33:36;0.30;;;0.30;;
39362;SDS011;25088;43.238;23.110;2023-02-28T12:36:11;0.30;;;0.30;;
39362;SDS011;25088;43.238;23.110;2023-02-28T12:38:50;0.30;;;0.30;;
39362;SDS011;25088;43.238;23.110;2023-02-28T12:41:31;0.30;;;0.30;;
39362;SDS011;25088;43.238;23.110;2023-02-28T12:44:20;0.30;;;0.30;;
39362;SDS011;25088;43.238;23.110;2023-02-28T12:46:51;0.20;;;0.20;;
39362;SDS011;25088;43.238;23.110;2023-02-28T12:49:23;0.30;;;0.30;;
39362;SDS011;25088;43.238;23.110;2023-02-28T12:51:57;0.30;;;0.30;;
39362;SDS011;25088;43.238;23.110;2023-02-28T12:54:28;0.30;;;0.30;;
39362;SDS011;25088;43.238;23.110;2023-02-28T12:57:06;0.20;;;0.20;;
39362;SDS011;25088;43.238;23.110;2023-02-28T12:59:48;0.30;;;0.30;;
39362;SDS011;25088;43.238;23.110;2023-02-28T13:10:17;0.20;;;0.20;;
39362;SDS011;25088;43.238;23.110;2023-02-28T13:12:47;0.20;;;0.20;;
39362;SDS011;25088;43.238;23.110;2023-02-28T13:17:48;0.20;;;0.20;;
39362;SDS011;25088;43.238;23.110;2023-02-28T13:20:17;0.30;;;0.30;;
39362;SDS011;25088;43.238;23.110;2023-02-28T13:23:03;0.20;;;0.20;;
39362;SDS011;25088;43.238;23.110;2023-02-28T13:25:49;0.30;;;0.30;;
39362;SDS011;25088;43.238;23.110;2023-02-28T13:28:57;0.28;;;0.28;;
39362;SDS011;25088;43.238;23.110;2023-02-28T13:31:19;0.20;;;0.20;;
39362;SDS011;25088;43.238;23.110;2023-02-28T13:36:27;0.30;;;0.30;;
39362;SDS011;25088;43.238;23.110;2023-02-28T13:38:58;0.20;;;0.20;;
39362;SDS011;25088;43.238;23.110;2023-02-28T13:44:01;0.30;;;0.30;;
39362;SDS011;25088;43.238;23.110;2023-02-28T13:46:32;0.30;;;0.30;;
39362;SDS011;25088;43.238;23.110;2023-02-28T13:49:20;0.30;;;0.30;;
39362;SDS011;25088;43.238;23.110;2023-02-28T13:52:00;0.30;;;0.30;;
39362;SDS011;25088;43.238;23.110;2023-02-28T13:57:06;0.22;;;0.22;;
39362;SDS011;25088;43.238;23.110;2023-02-28T13:59:58;0.28;;;0.28;;
39362;SDS011;25088;43.238;23.110;2023-02-28T14:05:34;0.25;;;0.25;;
39362;SDS011;25088;43.238;23.110;2023-02-28T14:08:18;0.30;;;0.30;;
39362;SDS011;25088;43.238;23.110;2023-02-28T14:10:48;0.30;;;0.30;;
39362;SDS011;25088;43.238;23.110;2023-02-28T14:16:13;0.20;;;0.20;;
39362;SDS011;25088;43.238;23.110;2023-02-28T14:18:42;0.30;;;0.30;;
39362;SDS011;25088;43.238;23.110;2023-02-28T14:21:28;0.30;;;0.30;;
39362;SDS011;25088;43.238;23.110;2023-02-28T14:32:43;0.30;;;0.30;;
39362;SDS011;25088;43.238;23.110;2023-02-28T14:37:51;0.30;;;0.30;;
39362;SDS011;25088;43.238;23.110;2023-02-28T14:43:00;0.30;;;0.30;;
39362;SDS011;25088;43.238;23.110;2023-02-28T14:45:34;0.30;;;0.30;;
39362;SDS011;25088;43.238;23.110;2023-02-28T14:48:02;0.30;;;0.30;;
39362;SDS011;25088;43.238;23.110;2023-02-28T14:50:34;0.30;;;0.30;;
39362;SDS011;25088;43.238;23.110;2023-02-28T14:53:01;0.30;;;0.30;;
39362;SDS011;25088;43.238;23.110;2023-02-28T14:55:29;0.20;;;0.20;;
39362;SDS011;25088;43.238;23.110;2023-02-28T14:57:58;0.30;;;0.30;;
39362;SDS011;25088;43.238;23.110;2023-02-28T15:00:30;0.30;;;0.30;;
39362;SDS011;25088;43.238;23.110;2023-02-28T15:02:58;0.30;;;0.30;;
39362;SDS011;25088;43.238;23.110;2023-02-28T15:05:26;0.30;;;0.30;;
39362;SDS011;25088;43.238;23.110;2023-02-28T15:08:12;0.40;;;0.40;;
39362;SDS011;25088;43.238;23.110;2023-02-28T15:10:58;0.30;;;0.30;;
39362;SDS011;25088;43.238;23.110;2023-02-28T15:13:38;0.30;;;0.30;;
39362;SDS011;25088;43.238;23.110;2023-02-28T15:16:08;0.30;;;0.30;;
39362;SDS011;25088;43.238;23.110;2023-02-28T15:18:54;0.28;;;0.28;;
39362;SDS011;25088;43.238;23.110;2023-02-28T15:21:43;0.30;;;0.30;;
39362;SDS011;25088;43.238;23.110;2023-02-28T15:26:41;0.30;;;0.30;;
39362;SDS011;25088;43.238;23.110;2023-02-28T15:29:15;0.30;;;0.30;;
39362;SDS011;25088;43.238;23.110;2023-02-28T15:31:45;0.30;;;0.30;;
39362;SDS011;25088;43.238;23.110;2023-02-28T15:34:20;0.30;;;0.30;;
39362;SDS011;25088;43.238;23.110;2023-02-28T15:37:00;0.30;;;0.30;;
39362;SDS011;25088;43.238;23.110;2023-02-28T15:39:26;0.30;;;0.30;;
39362;SDS011;25088;43.238;23.110;2023-02-28T15:42:12;0.30;;;0.30;;
39362;SDS011;25088;43.238;23.110;2023-02-28T15:44:45;0.30;;;0.30;;
39362;SDS011;25088;43.238;23.110;2023-02-28T15:47:18;0.30;;;0.30;;
39362;SDS011;25088;43.238;23.110;2023-02-28T15:52:38;0.30;;;0.30;;
39362;SDS011;25088;43.238;23.110;2023-02-28T15:55:11;0.30;;;0.30;;
39362;SDS011;25088;43.238;23.110;2023-02-28T15:57:44;0.30;;;0.30;;
39362;SDS011;25088;43.238;23.110;2023-02-28T16:00:19;0.30;;;0.30;;
39362;SDS011;25088;43.238;23.110;2023-02-28T16:02:47;0.25;;;0.25;;
39362;SDS011;25088;43.238;23.110;2023-02-28T16:05:23;0.30;;;0.30;;
39362;SDS011;25088;43.238;23.110;2023-02-28T16:07:56;0.30;;;0.30;;
39362;SDS011;25088;43.238;23.110;2023-02-28T16:10:23;0.30;;;0.30;;
39362;SDS011;25088;43.238;23.110;2023-02-28T16:12:55;0.30;;;0.30;;
39362;SDS011;25088;43.238;23.110;2023-02-28T16:15:23;0.30;;;0.30;;
39362;SDS011;25088;43.238;23.110;2023-02-28T16:17:52;0.30;;;0.30;;
39362;SDS011;25088;43.238;23.110;2023-02-28T16:20:20;0.30;;;0.30;;
39362;SDS011;25088;43.238;23.110;2023-02-28T16:22:47;0.30;;;0.30;;
39362;SDS011;25088;43.238;23.110;2023-02-28T16:25:13;0.30;;;0.30;;
39362;SDS011;25088;43.238;23.110;2023-02-28T16:27:39;0.30;;;0.30;;
39362;SDS011;25088;43.238;23.110;2023-02-28T16:30:07;0.30;;;0.30;;
39362;SDS011;25088;43.238;23.110;2023-02-28T16:32:40;0.30;;;0.30;;
39362;SDS011;25088;43.238;23.110;2023-02-28T16:35:09;0.30;;;0.30;;
39362;SDS011;25088;43.238;23.110;2023-02-28T16:37:35;0.30;;;0.30;;
39362;SDS011;25088;43.238;23.110;2023-02-28T16:40:01;0.30;;;0.30;;
39362;SDS011;25088;43.238;23.110;2023-02-28T16:42:27;0.30;;;0.30;;
39362;SDS011;25088;43.238;23.110;2023-02-28T16:44:53;0.30;;;0.30;;
39362;SDS011;25088;43.238;23.110;2023-02-28T16:47:20;0.30;;;0.30;;
39362;SDS011;25088;43.238;23.110;2023-02-28T16:49:47;0.30;;;0.30;;
39362;SDS011;25088;43.238;23.110;2023-02-28T16:52:12;0.30;;;0.30;;
39362;SDS011;25088;43.238;23.110;2023-02-28T16:54:39;0.30;;;0.30;;
39362;SDS011;25088;43.238;23.110;2023-02-28T16:57:06;0.30;;;0.30;;
39362;SDS011;25088;43.238;23.110;2023-02-28T16:59:40;0.30;;;0.30;;
39362;SDS011;25088;43.238;23.110;2023-02-28T17:02:18;0.30;;;0.30;;
39362;SDS011;25088;43.238;23.110;2023-02-28T17:04:45;0.30;;;0.30;;
39362;SDS011;25088;43.238;23.110;2023-02-28T17:07:11;0.30;;;0.30;;
39362;SDS011;25088;43.238;23.110;2023-02-28T17:09:39;0.30;;;0.30;;